Nearby METAR Reports

CWGD - Goderich (autob), Ontario, Canada
Distance from station: SW 47km
Updated: 01/20/2022 5:00pm

 Wind from NNE
Wind: NNE 13 km/h
Temperature: -11°C
Wind Chill: -18°C
Dew Point: -15°C
Humidity: 73%
2022/01/20 22:00 CWGD 202200Z AUTO 02007KT M11/M15 RMK AO1 SOG 03 3011 PK WND 34018/2136 SLP213 T11051150
CWLS - Mount Forest(Mar, Ontario, Canada
Distance from station: ESE 53km
Updated: 01/20/2022 5:00pm

 Wind from NNW
Wind: NNW 13 km/h
Temperature: -15°C
Wind Chill: -22°C
Dew Point: -20°C
Humidity: 66%
2022/01/20 22:00 CWLS 202200Z AUTO 34007KT M15/M20 RMK AO1 SOG 05 3012 SLP327 T11531196
 
CYVV - Wiarton Air, Ontario, Canada
Distance from station: NNE 75km
Updated: 01/20/2022 5:00pm
Few Clouds
Few Clouds
 Wind from NW
Wind: NW 11 km/h
Temperature: -15°C
Wind Chill: -22°C
Dew Point: -19°C
Humidity: 72%
Barometer: 1031.8 hPa
Clouds: Few Clouds
Visibility: 24 km
Cloud details: Few Clouds 610 m
2022/01/20 22:00 CYVV 202200Z 32006KT 270V360 15SM FEW020 M15/M19 A3047 RMK SC1 SLP339
CZEL - Elora Rcs, Ontario, Canada
Distance from station: ESE 93km
Updated: 01/20/2022 5:00pm

 Wind from NNW
Wind: NNW 15 km/h
Temperature: -14°C
Wind Chill: -21°C
Dew Point: -19°C
Humidity: 66%
2022/01/20 22:00 CZEL 202200Z AUTO 33008KT M14/M19 RMK AO1 SOG 07 3015 PK WND 33018/2110 SLP334 T11421189
 
CWCO - Collingwood (aut, Ontario, Canada
Distance from station: ENE 104km
Updated: 01/20/2022 5:00pm

 Wind from WNW
Wind: WNW 11 km/h
Temperature: -13°C
Wind Chill: -19°C
Dew Point: -14°C
Humidity: 92%
2022/01/20 22:00 CWCO 202200Z AUTO 30006KT M13/M14 RMK AO1 3007 SLP338 T11281144 50002
CYKF - Waterloo Well, Ontario, Canada
Distance from station: SE 107km
Updated: 01/20/2022 5:00pm
Overcast
Overcast
 Wind from NW
Wind: NW 17 km/h
Temperature: -13°C
Wind Chill: -21°C
Dew Point: -19°C
Humidity: 61%
Barometer: 1030.5 hPa
Clouds: Overcast
Visibility: 14 km
Cloud details: Overcast 884 m
2022/01/20 22:00 CYKF 202200Z AUTO 32009KT 9SM OVC029 M13/M19 A3043 RMK SLP331
 
KP58 - Port Hope, Michigan, USA
Distance from station: W 114km
Updated: 01/20/2022 4:55pm

 Wind from NNW
Wind: NNW 17 km/h, Gust: 30 km/h
Temperature: -9°C
Wind Chill: -16°C
Dew Point: -15°C
Humidity: 62%
Barometer: 1032.5 hPa
2022/01/20 21:55 KP58 202155Z AUTO 33009G16KT M09/M15 A3049 RMK AO1 SLP346 T10941150
CYBN - Borden, Ontario, Canada
Distance from station: E 118km
Updated: 01/06/2022 7:00am
NOT Current
Light snow, Overcast
Light snow, Overcast
 Wind from SW
Wind: SW 15 km/h
Temperature: -6°C
Wind Chill: -12°C
Dew Point: -9°C
Humidity: 80%
Barometer: 1007.8 hPa
Summary: Light Snow
Clouds: Overcast
Visibility: 10 km
Cloud details: Overcast 579 m
2022/01/06 12:00 CYBN 061200Z AUTO 23008KT 6SM -SN OVC019 M06/M09 A2976 RMK SLP091
 
CYXU - London Airport, Ontario, Canada
Distance from station: S 123km
Updated: 01/20/2022 5:49pm
Light snow, Showers, Overcast
Light snow, Showers, Overcast
 Wind from NW
Wind: NW 9 km/h
Temperature: -11°C
Wind Chill: -17°C
Dew Point: -15°C
Humidity: 73%
Barometer: 1031.5 hPa
Summary: Light snow, Showers
Clouds: Overcast
Visibility: 24 km
Cloud details: Overcast 1219 m
2022/01/20 22:49 CYXU 202249Z 32005KT 15SM -SHSN OVC040 M11/M15 A3046 RMK SC8 CVCTV CLD EMBD SLP340
CXET - Egbert Cs, Ontario, Canada
Distance from station: E 128km
Updated: 01/20/2022 5:00pm

 Wind from N
Wind: N 7 km/h
Temperature: -17°C
Wind Chill: -23°C
Dew Point: -20°C
Humidity: 78%
2022/01/20 22:00 CXET 202200Z AUTO 35004KT M17/M20 RMK AO1 SOG 17 3009 SLP336 T11671203
 
CWMZ - Western Isl (map, Ontario, Canada
Distance from station: NE 129km
Updated: 01/20/2022 5:00pm

 Wind from N
Wind: N 20 km/h
Temperature: -15°C
Wind Chill: -24°C
Dew Point: -17°C
Humidity: 85%
2022/01/20 22:00 CWMZ 202200Z AUTO 36011KT M15/M17 RMK AO1 PK WND 00017/2109 SLP344 T11541174 53003
KBAX - Bad Axe, Michigan, USA
Distance from station: WSW 133km
Updated: 01/20/2022 5:35pm
Overcast
Overcast
 Wind from NNW
Wind: NNW 11 km/h
Temperature: -10°C
Wind Chill: -16°C
Dew Point: -17°C
Humidity: 57%
Barometer: 1033.2 hPa
Clouds: Overcast
Visibility: 16 km
Cloud details: Overcast 1006 m
2022/01/20 22:35 KBAX 202235Z AUTO 34006KT 10SM OVC033 M10/M17 A3051 RMK AO2 T11051166
 
CWWX - Cove Island (map, Ontario, Canada
Distance from station: NNW 137km
Updated: 05/11/2021 10:00am
NOT Current

 Wind from NNW
Wind: NNW 30 km/h
Temperature: 5°C
Wind Chill: 0°C
Dew Point: 2°C
Humidity: 81%
2021/05/11 14:00 CWWX 111400Z AUTO 33016KT 05/02 RMK AO1 PK WND 34021/1308 SLP196 T00470019 51010
CYZR - Sarnia Airport, Ontario, Canada
Distance from station: SSW 144km
Updated: 01/20/2022 5:23pm
Overcast
Overcast
 Wind from NNW
Wind: NNW 26 km/h
Temperature: -9°C
Wind Chill: -17°C
Dew Point: -16°C
Humidity: 57%
Barometer: 1032.8 hPa
Clouds: Overcast
Visibility: 14 km
Cloud details: Overcast 1189 m
2022/01/20 22:23 CYZR 202223Z AUTO 34014KT 9SM OVC039 M09/M16 A3050 RMK SLP343
 
CXHM - Hamilton Rbg Cs, Ontario, Canada
Distance from station: SE 150km
Updated: 01/20/2022 5:00pm

 Wind from NNW
Wind: NNW 6 km/h
Temperature: -11°C
Dew Point: -18°C
Humidity: 57%
2022/01/20 22:00 CXHM 202200Z AUTO 33003KT M11/M18 RMK AO1 SLP340 T11121182 53015
CYYZ - Toronto/Pearson, Ontario, Canada
Distance from station: ESE 150km
Updated: 01/20/2022 5:00pm
Few Clouds
Few Clouds
 Wind from N
Wind: N 17 km/h
Temperature: -13°C
Wind Chill: -21°C
Dew Point: -20°C
Humidity: 56%
Barometer: 1031.5 hPa
Clouds: Few Clouds
Visibility: 24 km
Cloud details: Few Clouds 610 m
2022/01/20 22:00 CYYZ 202200Z 36009KT 15SM FEW020 M13/M20 A3046 RMK SC1 SC TR SLP334
 
CXBI - Barrie-Oro, Ontario, Canada
Distance from station: ENE 151km
Updated: 01/20/2022 5:00pm

 Wind from N
Wind: N 9 km/h
Temperature: -18°C
Wind Chill: -24°C
Dew Point: -22°C
Humidity: 71%
2022/01/20 22:00 CXBI 202200Z AUTO 35005KT M18/M22 RMK AO1 SOG 32 3009 SLP339 T11771215
CXDI - Delhi Cs (aut), Ontario, Canada
Distance from station: SSE 154km
Updated: 01/20/2022 5:00pm

 Wind from NNE
Wind: NNE 6 km/h
Temperature: -11°C
Dew Point: -17°C
Humidity: 62%
2022/01/20 22:00 CXDI 202200Z AUTO 03003KT M11/M17 RMK AO1 SOG 08 3012 SLP330 T11101168
 
CWWB - Burlington Piers, Ontario, Canada
Distance from station: SE 157km
Updated: 01/20/2022 5:00pm

 Wind from WNW
Wind: WNW 20 km/h
Temperature: -10°C
Wind Chill: -18°C
Dew Point: -18°C
Humidity: 52%
2022/01/20 22:00 CWWB 202200Z AUTO 29011KT M10/M18 RMK AO1 PK WND 32018/2127 SLP336 T11041182 53011
CYHM - Hamilton Airport, Ontario, Canada
Distance from station: SE 157km
Updated: 01/20/2022 5:00pm
Mostly cloudy
Mostly cloudy
 Wind from NW
Wind: NW 20 km/h, Gust: 33 km/h
Temperature: -12°C
Wind Chill: -21°C
Dew Point: -18°C
Humidity: 61%
Barometer: 1030.8 hPa
Clouds: Mostly cloudy
Visibility: 24 km
Cloud details: Mostly cloudy 914 m
2022/01/20 22:00 CYHM 202200Z 32011G18KT 15SM BKN030 M12/M18 A3044 RMK SC6 SLP330